Time;durP1;ratioP1;P1;durP2;ratioP2;P2;SDS_P1;SDS_P2;PMS_P1;PMS_P2;Temp;Humidity;BMP_temperature;BMP_pressure;BME280_temperature;BME280_humidity;BME280_pressure;Samples;Min_cycle;Max_cycle;Signal;HPM_P1;HPM_P2
2022/08/22 00:00:10;;;;;;;12.40;3.20;;;;;;;;;;5062538;28;20036;-67
2022/08/22 00:02:42;;;;;;;14.73;3.78;;;;;;;;;;5063395;28;20158;-67
2022/08/22 00:05:17;;;;;;;11.73;3.67;;;;;;;;;;5064011;28;20087;-67
2022/08/22 00:07:47;;;;;;;13.88;3.80;;;;;;;;;;5062973;28;20053;-67
2022/08/22 00:10:18;;;;;;;13.43;3.67;;;;;;;;;;5062827;28;20032;-67
2022/08/22 00:12:47;;;;;;;14.85;3.97;;;;;;;;;;5067001;28;20034;-67
2022/08/22 00:15:24;;;;;;;11.52;3.85;;;;;;;;;;5083142;28;20499;-67
2022/08/22 00:17:50;;;;;;;14.63;4.40;;;;;;;;;;5065855;28;20056;-67
2022/08/22 00:20:18;;;;;;;13.70;4.20;;;;;;;;;;5077122;28;20056;-67
2022/08/22 00:22:46;;;;;;;16.25;4.20;;;;;;;;;;5077950;28;20476;-67
2022/08/22 00:25:11;;;;;;;12.68;4.30;;;;;;;;;;5068411;28;20028;-67
2022/08/22 00:27:41;;;;;;;11.15;3.72;;;;;;;;;;5070323;28;20105;-67
2022/08/22 00:30:09;;;;;;;11.55;3.85;;;;;;;;;;5070811;28;20026;-67
2022/08/22 00:32:44;;;;;;;8.77;3.33;;;;;;;;;;5093628;28;20023;-67
2022/08/22 00:35:32;;;;;;;15.93;4.10;;;;;;;;;;5067100;28;20107;-67
2022/08/22 00:38:01;;;;;;;20.63;4.68;;;;;;;;;;5081488;28;20020;-67
2022/08/22 00:40:38;;;;;;;10.45;3.85;;;;;;;;;;5072578;28;20065;-67
2022/08/22 00:43:15;;;;;;;14.38;4.07;;;;;;;;;;5068708;28;20029;-67
2022/08/22 00:45:46;;;;;;;15.45;4.10;;;;;;;;;;5079371;28;20571;-67
2022/08/22 00:48:14;;;;;;;10.52;4.80;;;;;;;;;;5066834;28;20018;-67
2022/08/22 00:50:58;;;;;;;13.85;4.90;;;;;;;;;;5057155;28;20032;-67
2022/08/22 00:53:23;;;;;;;12.75;4.82;;;;;;;;;;5055984;28;20056;-67
2022/08/22 00:55:57;;;;;;;15.13;5.05;;;;;;;;;;5053668;28;20034;-67
2022/08/22 00:58:48;;;;;;;11.82;4.70;;;;;;;;;;5052578;28;20563;-67
2022/08/22 01:01:15;;;;;;;17.45;5.47;;;;;;;;;;5032464;28;20055;-67
2022/08/22 01:03:45;;;;;;;12.10;4.32;;;;;;;;;;5068643;28;20080;-67
2022/08/22 01:06:25;;;;;;;9.70;3.90;;;;;;;;;;5079443;28;20150;-67
2022/08/22 01:09:09;;;;;;;10.40;4.20;;;;;;;;;;5073063;28;21593;-67
2022/08/22 01:11:34;;;;;;;11.20;4.40;;;;;;;;;;5043564;28;20534;-67
2022/08/22 01:14:07;;;;;;;14.35;4.63;;;;;;;;;;5059145;28;20016;-67
2022/08/22 01:16:41;;;;;;;10.85;4.53;;;;;;;;;;5077087;28;20016;-67
2022/08/22 01:19:25;;;;;;;12.35;4.70;;;;;;;;;;5081722;28;20012;-67
2022/08/22 01:21:50;;;;;;;11.82;4.55;;;;;;;;;;5072928;28;20032;-67
2022/08/22 01:24:22;;;;;;;13.02;5.60;;;;;;;;;;5084465;28;20085;-67
2022/08/22 01:26:56;;;;;;;14.40;5.10;;;;;;;;;;5067866;28;20042;-67
2022/08/22 01:29:27;;;;;;;11.75;5.03;;;;;;;;;;5069812;28;20031;-67
2022/08/22 01:32:22;;;;;;;12.80;5.43;;;;;;;;;;5071900;28;20496;-67
2022/08/22 01:35:13;;;;;;;15.55;5.22;;;;;;;;;;5084759;28;20024;-67
2022/08/22 01:38:03;;;;;;;14.27;5.32;;;;;;;;;;5064104;28;20071;-67
2022/08/22 01:40:47;;;;;;;11.23;4.85;;;;;;;;;;5073052;28;20029;-67
2022/08/22 01:43:13;;;;;;;18.10;5.43;;;;;;;;;;5075200;28;20024;-67
2022/08/22 01:45:53;;;;;;;14.77;5.50;;;;;;;;;;5071677;28;20039;-67
2022/08/22 01:48:20;;;;;;;18.08;5.70;;;;;;;;;;5077241;28;20028;-67
2022/08/22 01:50:49;;;;;;;17.48;5.88;;;;;;;;;;5087905;28;20024;-67
2022/08/22 01:53:23;;;;;;;17.85;5.80;;;;;;;;;;5085040;28;20030;-67
2022/08/22 01:56:07;;;;;;;21.88;6.25;;;;;;;;;;5082347;28;20020;-67
2022/08/22 01:58:36;;;;;;;18.30;6.70;;;;;;;;;;5072661;28;20068;-67
2022/08/22 02:01:15;;;;;;;18.80;6.40;;;;;;;;;;5081093;28;20021;-67
2022/08/22 02:03:40;;;;;;;16.55;6.85;;;;;;;;;;5074732;28;20460;-67
2022/08/22 02:06:08;;;;;;;18.13;7.13;;;;;;;;;;5080114;28;20032;-67
2022/08/22 02:08:41;;;;;;;15.67;6.30;;;;;;;;;;5080349;28;20451;-67
2022/08/22 02:11:09;;;;;;;18.25;7.47;;;;;;;;;;5092660;28;20053;-67
2022/08/22 02:13:53;;;;;;;26.40;8.57;;;;;;;;;;5080783;28;20031;-67
2022/08/22 02:16:37;;;;;;;19.13;9.48;;;;;;;;;;5067987;28;20169;-67
2022/08/22 02:19:14;;;;;;;22.63;10.70;;;;;;;;;;5077862;28;20322;-67
2022/08/22 02:21:42;;;;;;;23.73;10.02;;;;;;;;;;5087326;28;20088;-67
2022/08/22 02:24:20;;;;;;;25.90;10.00;;;;;;;;;;5087574;28;20765;-67
2022/08/22 02:26:53;;;;;;;24.27;11.63;;;;;;;;;;5079939;28;20020;-67
2022/08/22 02:29:26;;;;;;;25.67;11.85;;;;;;;;;;5081310;28;20064;-67
2022/08/22 02:31:52;;;;;;;23.47;12.20;;;;;;;;;;5082773;28;20018;-67
2022/08/22 02:34:23;;;;;;;21.03;8.27;;;;;;;;;;5081173;28;20099;-67
2022/08/22 02:37:07;;;;;;;16.67;9.40;;;;;;;;;;5084352;28;20027;-67
2022/08/22 02:39:35;;;;;;;26.93;10.70;;;;;;;;;;5076226;28;20032;-67
2022/08/22 02:42:00;;;;;;;19.27;8.45;;;;;;;;;;5086249;28;20020;-67
2022/08/22 02:44:32;;;;;;;21.30;8.40;;;;;;;;;;5082179;28;20028;-67
2022/08/22 02:47:16;;;;;;;15.60;7.10;;;;;;;;;;5072597;28;20028;-67
2022/08/22 02:49:41;;;;;;;16.80;6.53;;;;;;;;;;5077120;28;20028;-67
2022/08/22 02:52:10;;;;;;;13.03;6.00;;;;;;;;;;5080723;28;20413;-67
2022/08/22 02:54:44;;;;;;;16.33;6.53;;;;;;;;;;5073718;28;20039;-67
2022/08/22 02:57:28;;;;;;;16.27;7.47;;;;;;;;;;5069928;28;20032;-67
2022/08/22 03:00:04;;;;;;;18.90;8.43;;;;;;;;;;5090292;28;20469;-67
2022/08/22 03:02:45;;;;;;;21.20;8.97;;;;;;;;;;5078869;28;20066;-67
2022/08/22 03:05:28;;;;;;;23.08;8.93;;;;;;;;;;5073457;28;20017;-67
2022/08/22 03:08:29;;;;;;;19.60;8.87;;;;;;;;;;5076073;28;20046;-67
2022/08/22 03:11:00;;;;;;;20.55;10.00;;;;;;;;;;5009818;28;20029;-67
2022/08/22 03:13:32;;;;;;;29.53;13.60;;;;;;;;;;5010983;28;20398;-67
2022/08/22 03:15:59;;;;;;;32.53;14.77;;;;;;;;;;5019004;28;20034;-67
2022/08/22 03:18:26;;;;;;;30.43;15.43;;;;;;;;;;5011997;28;20430;-67
2022/08/22 03:20:58;;;;;;;27.27;12.23;;;;;;;;;;5018526;28;20037;-66
2022/08/22 03:23:35;;;;;;;18.00;7.37;;;;;;;;;;5008043;28;20033;-66
2022/08/22 03:26:10;;;;;;;18.17;9.37;;;;;;;;;;5010668;28;20390;-67
2022/08/22 03:28:47;;;;;;;18.40;8.57;;;;;;;;;;5009230;28;20033;-66
2022/08/22 03:31:23;;;;;;;18.00;8.17;;;;;;;;;;5010331;28;20041;-67
2022/08/22 03:34:26;;;;;;;24.60;9.50;;;;;;;;;;4994090;28;20060;-67
2022/08/22 03:36:57;;;;;;;23.33;10.07;;;;;;;;;;4979058;28;20689;-67
2022/08/22 03:39:37;;;;;;;27.40;9.85;;;;;;;;;;4979859;28;20057;-67
2022/08/22 03:42:21;;;;;;;18.07;9.33;;;;;;;;;;4985996;28;20109;-67
2022/08/22 03:45:04;;;;;;;26.93;8.37;;;;;;;;;;4991519;28;20469;-67
2022/08/22 03:47:46;;;;;;;12.70;7.00;;;;;;;;;;4999642;28;20517;-67
2022/08/22 03:50:30;;;;;;;18.17;7.40;;;;;;;;;;4999164;28;20059;-67
2022/08/22 03:53:18;;;;;;;17.23;7.87;;;;;;;;;;5000427;28;20418;-67
2022/08/22 03:56:02;;;;;;;21.13;8.73;;;;;;;;;;4988149;28;20053;-67
2022/08/22 03:58:54;;;;;;;20.80;9.47;;;;;;;;;;4996226;28;20576;-67
2022/08/22 04:01:40;;;;;;;22.40;9.85;;;;;;;;;;4998708;28;20038;-67
2022/08/22 04:04:24;;;;;;;22.07;10.33;;;;;;;;;;5002958;28;20478;-66
2022/08/22 04:07:05;;;;;;;24.77;11.00;;;;;;;;;;5013294;28;20104;-67
2022/08/22 04:09:30;;;;;;;30.30;11.93;;;;;;;;;;5073899;28;20028;-67
2022/08/22 04:12:16;;;;;;;18.53;10.40;;;;;;;;;;5075072;28;20357;-67
2022/08/22 04:15:00;;;;;;;22.93;10.33;;;;;;;;;;5083035;28;20013;-66
2022/08/22 04:17:26;;;;;;;26.37;10.00;;;;;;;;;;5075973;28;20050;-66
2022/08/22 04:20:10;;;;;;;21.20;10.53;;;;;;;;;;5077744;28;20114;-67
2022/08/22 04:22:47;;;;;;;22.50;10.77;;;;;;;;;;5069336;28;20399;-66
2022/08/22 04:25:39;;;;;;;27.77;11.43;;;;;;;;;;5087027;28;20020;-66
2022/08/22 04:28:04;;;;;;;;;;;;;;;;;;5079239;28;20032;-66
2022/08/22 04:30:33;;;;;;;21.50;11.33;;;;;;;;;;5073270;28;20344;-67
2022/08/22 04:33:17;;;;;;;26.90;11.80;;;;;;;;;;5074435;28;20353;-67
2022/08/22 04:35:42;;;;;;;23.87;11.20;;;;;;;;;;5090245;28;20032;-68
2022/08/22 04:38:26;;;;;;;23.53;11.23;;;;;;;;;;5093073;28;20430;-67
2022/08/22 04:41:12;;;;;;;27.13;12.03;;;;;;;;;;5087853;28;20028;-66
2022/08/22 04:43:46;;;;;;;22.73;9.87;;;;;;;;;;5074908;28;20095;-67
2022/08/22 04:46:35;;;;;;;23.40;9.97;;;;;;;;;;5078184;28;20008;-67
2022/08/22 04:49:04;;;;;;;16.87;7.50;;;;;;;;;;5030401;28;20400;-67
2022/08/22 04:51:38;;;;;;;12.00;6.37;;;;;;;;;;5078392;28;20037;-67
2022/08/22 04:54:19;;;;;;;10.23;6.30;;;;;;;;;;5088395;28;20028;-67
2022/08/22 04:56:53;;;;;;;15.77;6.80;;;;;;;;;;5082620;28;20365;-67
2022/08/22 04:59:18;;;;;;;20.57;7.80;;;;;;;;;;5071215;28;20107;-67
2022/08/22 05:02:05;;;;;;;12.20;7.37;;;;;;;;;;5070297;28;20050;-67
2022/08/22 05:05:00;;;;;;;14.30;6.53;;;;;;;;;;5088521;28;20091;-67
2022/08/22 05:07:28;;;;;;;12.57;5.77;;;;;;;;;;5065652;28;20427;-67
2022/08/22 05:10:12;;;;;;;11.60;5.40;;;;;;;;;;5074908;28;20024;-67
2022/08/22 05:12:40;;;;;;;12.25;5.10;;;;;;;;;;5084710;28;20012;-67
2022/08/22 05:15:26;;;;;;;13.13;5.50;;;;;;;;;;5078205;28;20671;-68
2022/08/22 05:17:54;;;;;;;10.52;4.78;;;;;;;;;;5082759;28;20024;-67
2022/08/22 05:20:21;;;;;;;7.75;4.40;;;;;;;;;;5079324;28;20377;-66
2022/08/22 05:22:50;;;;;;;11.02;4.80;;;;;;;;;;5078002;28;20036;-67
2022/08/22 05:25:17;;;;;;;13.52;4.90;;;;;;;;;;5085572;28;20054;-66
2022/08/22 05:27:50;;;;;;;15.20;4.82;;;;;;;;;;5080936;28;20008;-66
2022/08/22 05:30:21;;;;;;;12.02;4.53;;;;;;;;;;5079966;28;20032;-66
2022/08/22 05:32:55;;;;;;;10.15;4.47;;;;;;;;;;5083682;28;20488;-66
2022/08/22 05:35:26;;;;;;;12.48;4.20;;;;;;;;;;5082519;28;20711;-66
2022/08/22 05:37:52;;;;;;;16.13;4.22;;;;;;;;;;5083194;28;20055;-66
2022/08/22 05:40:27;;;;;;;14.77;4.00;;;;;;;;;;5089686;28;20071;-66
2022/08/22 05:42:53;;;;;;;11.95;3.72;;;;;;;;;;5090243;28;20035;-66
2022/08/22 05:45:20;;;;;;;12.02;3.80;;;;;;;;;;5090051;28;20082;-67
2022/08/22 05:47:48;;;;;;;12.77;3.80;;;;;;;;;;5073495;28;20396;-66
2022/08/22 05:50:30;;;;;;;12.43;3.47;;;;;;;;;;5078824;28;20067;-67
2022/08/22 05:53:05;;;;;;;12.18;3.75;;;;;;;;;;5073555;28;20089;-66
2022/08/22 05:55:49;;;;;;;11.02;3.92;;;;;;;;;;5081629;28;20028;-67
2022/08/22 05:58:33;;;;;;;11.25;3.50;;;;;;;;;;5093846;28;20103;-67
2022/08/22 06:01:12;;;;;;;7.53;3.05;;;;;;;;;;5093470;28;20016;-67
2022/08/22 06:03:41;;;;;;;10.18;3.33;;;;;;;;;;5093343;28;20024;-67
2022/08/22 06:06:10;;;;;;;10.48;3.05;;;;;;;;;;5093585;28;20111;-67
2022/08/22 06:08:39;;;;;;;10.15;3.15;;;;;;;;;;5083444;28;20023;-67
2022/08/22 06:11:27;;;;;;;9.50;2.92;;;;;;;;;;5085808;28;20028;-66
2022/08/22 06:13:56;;;;;;;13.60;3.40;;;;;;;;;;5079662;28;20035;-66
2022/08/22 06:16:31;;;;;;;11.70;3.70;;;;;;;;;;5090762;28;20740;-67
2022/08/22 06:18:56;;;;;;;11.23;3.28;;;;;;;;;;5081673;28;20016;-67
2022/08/22 06:21:25;;;;;;;11.38;3.83;;;;;;;;;;5079439;28;20435;-66
2022/08/22 06:23:52;;;;;;;9.70;3.45;;;;;;;;;;5087626;28;20026;-67
2022/08/22 06:26:18;;;;;;;14.05;4.38;;;;;;;;;;5092060;28;20043;-66
2022/08/22 06:28:45;;;;;;;13.23;3.90;;;;;;;;;;5077110;28;20017;-67
2022/08/22 06:31:18;;;;;;;10.93;3.58;;;;;;;;;;5086582;28;20081;-66
2022/08/22 06:33:45;;;;;;;13.43;4.03;;;;;;;;;;5093480;28;20024;-66
2022/08/22 06:36:31;;;;;;;12.73;3.92;;;;;;;;;;5092693;28;20523;-66
2022/08/22 06:39:20;;;;;;;8.82;2.80;;;;;;;;;;5092911;28;20016;-67
2022/08/22 06:41:57;;;;;;;10.70;3.20;;;;;;;;;;5091370;28;20049;-67
2022/08/22 06:44:25;;;;;;;9.98;3.15;;;;;;;;;;5072864;28;20457;-66
2022/08/22 06:46:52;;;;;;;11.27;3.50;;;;;;;;;;5091539;28;20052;-66
2022/08/22 06:49:18;;;;;;;13.70;3.50;;;;;;;;;;5081914;28;20028;-66
2022/08/22 06:51:44;;;;;;;14.15;3.53;;;;;;;;;;5090984;28;20024;-66
2022/08/22 06:54:16;;;;;;;12.07;3.83;;;;;;;;;;5092676;28;20123;-67
2022/08/22 06:56:43;;;;;;;12.15;3.70;;;;;;;;;;5091137;28;20368;-66
2022/08/22 06:59:12;;;;;;;12.32;3.58;;;;;;;;;;5088791;28;20099;-67
2022/08/22 07:02:00;;;;;;;12.90;3.15;;;;;;;;;;5089933;28;20467;-66
2022/08/22 07:04:25;;;;;;;10.77;2.80;;;;;;;;;;5091729;28;20020;-66
2022/08/22 07:06:52;;;;;;;10.15;3.28;;;;;;;;;;5091991;28;20019;-66
2022/08/22 07:09:31;;;;;;;10.90;2.80;;;;;;;;;;5092472;28;20016;-66
2022/08/22 07:11:58;;;;;;;13.75;3.30;;;;;;;;;;5082597;28;20028;-65
2022/08/22 07:14:24;;;;;;;10.20;2.70;;;;;;;;;;5072027;28;20017;-66
2022/08/22 07:16:58;;;;;;;9.35;2.53;;;;;;;;;;5079234;28;20020;-66
2022/08/22 07:19:25;;;;;;;9.93;2.45;;;;;;;;;;5072151;28;20032;-66
2022/08/22 07:21:50;;;;;;;9.82;2.72;;;;;;;;;;5091239;28;20043;-66
2022/08/22 07:24:25;;;;;;;11.05;2.45;;;;;;;;;;5092117;28;20473;-65
2022/08/22 07:26:51;;;;;;;8.95;2.45;;;;;;;;;;5091591;28;20019;-66
2022/08/22 07:29:28;;;;;;;11.02;2.30;;;;;;;;;;5092055;28;20016;-67
2022/08/22 07:31:57;;;;;;;9.05;2.45;;;;;;;;;;5091751;28;20020;-67
2022/08/22 07:34:39;;;;;;;10.32;2.17;;;;;;;;;;5075283;28;20052;-67
2022/08/22 07:37:10;;;;;;;8.80;2.45;;;;;;;;;;5071463;28;20032;-67
2022/08/22 07:39:35;;;;;;;11.50;2.60;;;;;;;;;;5072187;28;20472;-68
2022/08/22 07:42:13;;;;;;;9.40;2.50;;;;;;;;;;5091981;28;20028;-68
2022/08/22 07:44:42;;;;;;;8.18;2.30;;;;;;;;;;5091456;28;20027;-68
2022/08/22 07:47:09;;;;;;;8.93;2.72;;;;;;;;;;5091874;28;20028;-67
2022/08/22 07:49:43;;;;;;;9.15;2.50;;;;;;;;;;5090434;28;20413;-66
2022/08/22 07:52:10;;;;;;;8.93;2.42;;;;;;;;;;5091602;28;20036;-67
2022/08/22 07:54:38;;;;;;;7.45;2.40;;;;;;;;;;5073692;28;20046;-67
2022/08/22 07:57:06;;;;;;;7.07;2.17;;;;;;;;;;5091770;28;20016;-66
2022/08/22 07:59:34;;;;;;;10.77;2.58;;;;;;;;;;5091202;28;20028;-66
2022/08/22 08:02:00;;;;;;;9.32;2.22;;;;;;;;;;5071113;28;20066;-67
2022/08/22 08:04:29;;;;;;;8.77;1.98;;;;;;;;;;5070977;28;20039;-66
2022/08/22 08:06:57;;;;;;;10.23;2.83;;;;;;;;;;5086931;28;20090;-66
2022/08/22 08:09:25;;;;;;;11.20;2.25;;;;;;;;;;5071174;28;20032;-66
2022/08/22 08:11:52;;;;;;;9.70;2.22;;;;;;;;;;5081584;28;20020;-66
2022/08/22 08:14:19;;;;;;;8.77;2.50;;;;;;;;;;5071157;28;20481;-66
2022/08/22 08:16:47;;;;;;;13.52;2.30;;;;;;;;;;5089468;28;20028;-66
2022/08/22 08:19:14;;;;;;;8.00;2.20;;;;;;;;;;5091116;28;20034;-66
2022/08/22 08:21:48;;;;;;;8.38;2.35;;;;;;;;;;5090992;28;20020;-66
2022/08/22 08:24:15;;;;;;;8.15;2.40;;;;;;;;;;5084043;28;20099;-67
2022/08/22 08:28:32;;;;;;;9.07;2.40;;;;;;;;;;5088725;28;20092;-67
2022/08/22 08:29:32;;;;;;;8.43;2.50;;;;;;;;;;5090786;28;20049;-67
2022/08/22 08:31:58;;;;;;;9.68;2.30;;;;;;;;;;5081645;28;20020;-66
2022/08/22 08:34:24;;;;;;;11.32;2.50;;;;;;;;;;5070663;28;20021;-66
2022/08/22 08:36:49;;;;;;;12.98;2.60;;;;;;;;;;5089881;28;20475;-66
2022/08/22 08:39:15;;;;;;;9.05;2.40;;;;;;;;;;5091088;28;20035;-66
2022/08/22 08:41:53;;;;;;;11.45;2.63;;;;;;;;;;5079913;28;20028;-66
2022/08/22 08:44:25;;;;;;;10.15;2.45;;;;;;;;;;5071092;28;20522;-67
2022/08/22 08:47:09;;;;;;;10.07;2.40;;;;;;;;;;5089741;28;20069;-66
2022/08/22 08:49:35;;;;;;;9.65;2.75;;;;;;;;;;5090735;28;20564;-66
2022/08/22 08:52:19;;;;;;;7.25;2.40;;;;;;;;;;5094579;28;20107;-66
2022/08/22 08:55:09;;;;;;;7.43;2.28;;;;;;;;;;5094710;28;20711;-67
2022/08/22 08:57:47;;;;;;;10.05;2.42;;;;;;;;;;5092718;28;20391;-67
2022/08/22 09:00:35;;;;;;;9.95;2.08;;;;;;;;;;5092042;28;20551;-66
2022/08/22 09:03:13;;;;;;;7.70;2.38;;;;;;;;;;5091687;28;20159;-67
2022/08/22 09:05:47;;;;;;;8.55;2.40;;;;;;;;;;5103645;28;20069;-66
2022/08/22 09:08:19;;;;;;;9.52;2.40;;;;;;;;;;5115404;28;20099;-66
2022/08/22 09:10:50;;;;;;;13.80;2.55;;;;;;;;;;5114648;28;20072;-66
2022/08/22 09:13:15;;;;;;;8.57;2.60;;;;;;;;;;5074514;28;20027;-66
2022/08/22 09:15:47;;;;;;;9.67;2.20;;;;;;;;;;5091399;28;20023;-67
2022/08/22 09:18:38;;;;;;;8.05;1.90;;;;;;;;;;5094597;28;20262;-67
2022/08/22 09:21:22;;;;;;;6.65;1.60;;;;;;;;;;5088762;28;20028;-68
2022/08/22 09:24:05;;;;;;;8.57;1.95;;;;;;;;;;5094511;28;20091;-66
2022/08/22 09:26:48;;;;;;;9.15;2.20;;;;;;;;;;5094099;28;20031;-67
2022/08/22 09:29:28;;;;;;;7.60;1.90;;;;;;;;;;5076077;28;20074;-67
2022/08/22 09:32:13;;;;;;;8.45;1.80;;;;;;;;;;5089746;28;20021;-67
2022/08/22 09:34:59;;;;;;;10.40;2.00;;;;;;;;;;5063577;28;20688;-67
2022/08/22 09:37:27;;;;;;;7.65;2.00;;;;;;;;;;5093122;28;20034;-66
2022/08/22 09:39:58;;;;;;;7.32;1.80;;;;;;;;;;5093994;28;20031;-68
2022/08/22 09:42:30;;;;;;;8.10;1.55;;;;;;;;;;5093976;28;20051;-68
2022/08/22 09:45:18;;;;;;;5.55;1.80;;;;;;;;;;5093926;28;20042;-66
2022/08/22 09:47:52;;;;;;;6.90;1.73;;;;;;;;;;5075314;28;20499;-67
2022/08/22 09:50:26;;;;;;;7.70;2.00;;;;;;;;;;5084029;28;20040;-67
2022/08/22 09:53:04;;;;;;;6.60;1.70;;;;;;;;;;5093760;28;20499;-67
2022/08/22 09:55:30;;;;;;;6.57;1.80;;;;;;;;;;5093778;28;20429;-67
2022/08/22 09:58:11;;;;;;;6.47;1.73;;;;;;;;;;5093779;28;20032;-67
2022/08/22 10:00:45;;;;;;;8.25;2.22;;;;;;;;;;5093549;28;20055;-67
2022/08/22 10:03:24;;;;;;;6.55;1.88;;;;;;;;;;5092769;28;20529;-67
2022/08/22 10:06:03;;;;;;;6.43;2.00;;;;;;;;;;5089815;28;20035;-66
2022/08/22 10:08:32;;;;;;;7.32;1.80;;;;;;;;;;5073448;28;20025;-67
2022/08/22 10:11:18;;;;;;;8.23;1.98;;;;;;;;;;5083551;28;20034;-67
2022/08/22 10:13:56;;;;;;;6.40;1.75;;;;;;;;;;5076857;28;20044;-68
2022/08/22 10:16:30;;;;;;;6.15;1.80;;;;;;;;;;5098060;28;20101;-66
2022/08/22 10:18:55;;;;;;;8.50;1.50;;;;;;;;;;5093371;28;20036;-67
2022/08/22 10:21:29;;;;;;;7.10;2.13;;;;;;;;;;5092924;28;20472;-66
2022/08/22 10:23:58;;;;;;;6.55;2.10;;;;;;;;;;5080064;28;20247;-67
2022/08/22 10:26:27;;;;;;;8.23;2.00;;;;;;;;;;5088562;28;20476;-67
2022/08/22 10:29:11;;;;;;;8.55;2.22;;;;;;;;;;5093328;28;20043;-66
2022/08/22 10:31:48;;;;;;;7.70;2.30;;;;;;;;;;5092931;28;20096;-66
2022/08/22 10:34:33;;;;;;;8.45;2.00;;;;;;;;;;5093500;28;20023;-66
2022/08/22 10:36:59;;;;;;;6.10;2.10;;;;;;;;;;5072126;28;20044;-67
2022/08/22 10:39:29;;;;;;;5.88;1.80;;;;;;;;;;5072987;28;20480;-66
2022/08/22 10:41:58;;;;;;;14.80;2.40;;;;;;;;;;5089957;28;20059;-66
2022/08/22 10:44:26;;;;;;;7.88;1.90;;;;;;;;;;5092942;28;20054;-67
2022/08/22 10:46:57;;;;;;;6.80;2.10;;;;;;;;;;5092051;28;20055;-66
2022/08/22 10:49:26;;;;;;;8.85;1.85;;;;;;;;;;5092695;28;20016;-67
2022/08/22 10:52:00;;;;;;;6.32;1.85;;;;;;;;;;5092645;28;20077;-66
2022/08/22 10:54:28;;;;;;;4.70;1.70;;;;;;;;;;5091323;28;20115;-66
2022/08/22 10:57:08;;;;;;;6.63;2.28;;;;;;;;;;5087636;28;20020;-66
2022/08/22 10:59:37;;;;;;;6.43;2.05;;;;;;;;;;5072155;28;20475;-66
2022/08/22 11:02:05;;;;;;;10.02;2.00;;;;;;;;;;5092968;28;20026;-66
2022/08/22 11:04:39;;;;;;;5.63;1.83;;;;;;;;;;5092007;28;20020;-66
2022/08/22 11:07:23;;;;;;;4.72;1.77;;;;;;;;;;5092629;28;20034;-66
2022/08/22 11:09:54;;;;;;;6.28;1.63;;;;;;;;;;5094092;28;20088;-67
2022/08/22 11:12:32;;;;;;;7.13;1.88;;;;;;;;;;5087191;28;20020;-67
2022/08/22 11:15:10;;;;;;;9.07;1.80;;;;;;;;;;5074052;28;20039;-66
2022/08/22 11:17:54;;;;;;;5.45;1.70;;;;;;;;;;5092749;28;20111;-66
2022/08/22 11:20:24;;;;;;;6.90;1.73;;;;;;;;;;5073740;28;20042;-66
2022/08/22 11:22:52;;;;;;;7.63;1.63;;;;;;;;;;5091990;28;20134;-67
2022/08/22 11:25:29;;;;;;;7.22;1.63;;;;;;;;;;5091992;28;20490;-66
2022/08/22 11:27:57;;;;;;;4.72;1.60;;;;;;;;;;5092132;28;20112;-66
2022/08/22 11:30:30;;;;;;;9.00;1.70;;;;;;;;;;5091483;28;20023;-66
2022/08/22 11:33:04;;;;;;;8.27;2.10;;;;;;;;;;5071807;28;20429;-67
2022/08/22 11:35:30;;;;;;;8.25;1.80;;;;;;;;;;5079748;28;20016;-67
2022/08/22 11:38:04;;;;;;;7.07;1.60;;;;;;;;;;5092328;28;20027;-66
2022/08/22 11:40:44;;;;;;;6.25;1.65;;;;;;;;;;5091715;28;20052;-67
2022/08/22 11:43:15;;;;;;;4.60;1.67;;;;;;;;;;5092350;28;20161;-67
2022/08/22 11:45:48;;;;;;;5.97;1.75;;;;;;;;;;5091887;28;20502;-67
2022/08/22 11:48:16;;;;;;;9.38;1.45;;;;;;;;;;5084956;28;20027;-66
2022/08/22 11:50:45;;;;;;;7.15;1.77;;;;;;;;;;5080987;28;20024;-67
2022/08/22 11:53:20;;;;;;;4.07;1.40;;;;;;;;;;5091796;28;20472;-67
2022/08/22 11:55:54;;;;;;;4.88;1.67;;;;;;;;;;5091476;28;20376;-67
2022/08/22 11:58:32;;;;;;;5.53;1.35;;;;;;;;;;5091813;28;20020;-67
2022/08/22 12:01:10;;;;;;;5.30;1.60;;;;;;;;;;5091413;28;20038;-66
2022/08/22 12:03:46;;;;;;;7.03;1.60;;;;;;;;;;5091508;28;20066;-67
2022/08/22 12:06:31;;;;;;;6.68;1.60;;;;;;;;;;5090152;28;20047;-66
2022/08/22 12:09:15;;;;;;;5.65;1.50;;;;;;;;;;5091401;28;20059;-66
2022/08/22 12:11:47;;;;;;;5.72;1.50;;;;;;;;;;5083790;28;20016;-66
2022/08/22 12:14:18;;;;;;;5.80;1.60;;;;;;;;;;5090200;28;20043;-66
2022/08/22 12:17:13;;;;;;;5.63;1.50;;;;;;;;;;5091280;28;20506;-67
2022/08/22 12:20:07;;;;;;;5.70;1.55;;;;;;;;;;5069167;28;20066;-67
2022/08/22 12:22:42;;;;;;;7.53;1.50;;;;;;;;;;5059768;28;20028;-67
2022/08/22 12:25:10;;;;;;;5.57;1.50;;;;;;;;;;5075182;28;20095;-66
2022/08/22 12:27:35;;;;;;;9.30;1.98;;;;;;;;;;5091285;28;20695;-66
2022/08/22 12:30:13;;;;;;;5.82;1.67;;;;;;;;;;5091212;28;20036;-66
2022/08/22 12:32:50;;;;;;;5.80;1.60;;;;;;;;;;5091196;28;20028;-66
2022/08/22 12:35:21;;;;;;;9.43;1.67;;;;;;;;;;5091459;28;20513;-66
2022/08/22 12:37:56;;;;;;;6.47;1.50;;;;;;;;;;5083863;28;20020;-66
2022/08/22 12:40:30;;;;;;;4.95;1.45;;;;;;;;;;5078341;28;20128;-66
2022/08/22 12:43:14;;;;;;;6.97;1.40;;;;;;;;;;5090964;28;20023;-67
2022/08/22 12:45:39;;;;;;;5.20;1.40;;;;;;;;;;5090846;28;20032;-67
2022/08/22 12:48:23;;;;;;;5.57;1.60;;;;;;;;;;5091183;28;20032;-66
2022/08/22 12:50:56;;;;;;;5.68;1.25;;;;;;;;;;5090649;28;20363;-66
2022/08/22 12:53:33;;;;;;;3.92;1.33;;;;;;;;;;5090213;28;20036;-66
2022/08/22 12:56:04;;;;;;;7.07;1.83;;;;;;;;;;5086102;28;20076;-66
2022/08/22 12:58:33;;;;;;;4.25;1.48;;;;;;;;;;5070772;28;20031;-66
2022/08/22 13:01:00;;;;;;;9.57;1.52;;;;;;;;;;5073560;28;20036;-66
2022/08/22 13:03:33;;;;;;;6.13;1.48;;;;;;;;;;5071107;28;20100;-66
2022/08/22 13:06:03;;;;;;;8.48;1.50;;;;;;;;;;5082797;28;20027;-66
2022/08/22 13:08:34;;;;;;;8.07;1.55;;;;;;;;;;5091397;28;20020;-66
2022/08/22 13:11:00;;;;;;;5.15;1.35;;;;;;;;;;5099211;28;20026;-67
2022/08/22 13:13:35;;;;;;;7.63;2.22;;;;;;;;;;5071325;28;20389;-66
2022/08/22 13:16:03;;;;;;;7.07;1.42;;;;;;;;;;5082728;28;20024;-67
2022/08/22 13:18:33;;;;;;;6.32;1.65;;;;;;;;;;5090835;28;20012;-66
2022/08/22 13:21:00;;;;;;;6.13;1.40;;;;;;;;;;5090737;28;20028;-67
2022/08/22 13:23:30;;;;;;;6.43;1.58;;;;;;;;;;5091497;28;20039;-66
2022/08/22 13:26:02;;;;;;;5.50;1.50;;;;;;;;;;5090679;28;20034;-66
2022/08/22 13:28:30;;;;;;;4.15;1.20;;;;;;;;;;5091257;28;20012;-66
2022/08/22 13:30:56;;;;;;;7.13;1.80;;;;;;;;;;5089477;28;20695;-66
2022/08/22 13:33:24;;;;;;;5.13;1.42;;;;;;;;;;5090741;28;20162;-67
2022/08/22 13:35:54;;;;;;;7.20;1.70;;;;;;;;;;5090351;28;20024;-67
2022/08/22 13:38:27;;;;;;;3.60;1.30;;;;;;;;;;5094222;28;20024;-67
2022/08/22 13:40:56;;;;;;;8.60;1.58;;;;;;;;;;5093550;28;20150;-67
2022/08/22 13:43:28;;;;;;;6.07;1.80;;;;;;;;;;5094221;28;20016;-66
2022/08/22 13:45:56;;;;;;;6.97;1.40;;;;;;;;;;5093955;28;20107;-66
2022/08/22 13:48:24;;;;;;;5.55;1.60;;;;;;;;;;5077454;28;20102;-66
2022/08/22 13:50:55;;;;;;;7.63;1.85;;;;;;;;;;5084386;28;20028;-66
2022/08/22 13:53:20;;;;;;;;;;;;;;;;;;5094135;28;20032;-66
2022/08/22 13:55:54;;;;;;;9.55;1.60;;;;;;;;;;5093410;28;19908;-66
2022/08/22 13:58:28;;;;;;;6.13;1.45;;;;;;;;;;5093781;28;20032;-66
2022/08/22 14:00:59;;;;;;;6.95;1.60;;;;;;;;;;5093567;28;20034;-66
2022/08/22 14:03:27;;;;;;;7.95;1.60;;;;;;;;;;5093470;28;20484;-66
2022/08/22 14:05:55;;;;;;;10.57;1.88;;;;;;;;;;5084517;28;20012;-66
2022/08/22 14:08:25;;;;;;;5.13;1.63;;;;;;;;;;5093630;28;20023;-67
2022/08/22 14:11:09;;;;;;;5.22;1.63;;;;;;;;;;5093314;28;20536;-66
2022/08/22 14:13:37;;;;;;;6.03;1.60;;;;;;;;;;5074494;28;20245;-66
2022/08/22 14:16:11;;;;;;;5.97;1.60;;;;;;;;;;5101228;28;20024;-66
2022/08/22 14:18:38;;;;;;;5.25;1.50;;;;;;;;;;5093430;28;20023;-67
2022/08/22 14:21:15;;;;;;;4.88;1.40;;;;;;;;;;5087351;28;20054;-66
2022/08/22 14:23:41;;;;;;;5.22;1.55;;;;;;;;;;5073485;28;20019;-66
2022/08/22 14:26:06;;;;;;;4.40;1.60;;;;;;;;;;5086522;28;20442;-66
2022/08/22 14:28:34;;;;;;;7.78;1.60;;;;;;;;;;5073170;28;20059;-67
2022/08/22 14:31:06;;;;;;;8.32;1.67;;;;;;;;;;5085806;28;20107;-66
2022/08/22 14:33:37;;;;;;;6.32;1.70;;;;;;;;;;5093037;28;20031;-66
2022/08/22 14:36:10;;;;;;;5.18;1.95;;;;;;;;;;5093178;28;20030;-66
2022/08/22 14:38:42;;;;;;;8.65;1.65;;;;;;;;;;5082863;28;20035;-66
2022/08/22 14:41:15;;;;;;;4.85;1.55;;;;;;;;;;5085883;28;20452;-66
2022/08/22 14:43:58;;;;;;;3.88;1.40;;;;;;;;;;5092941;28;20022;-66
2022/08/22 14:46:32;;;;;;;6.32;1.80;;;;;;;;;;5092834;28;20016;-66
2022/08/22 14:49:17;;;;;;;6.43;1.70;;;;;;;;;;5092317;28;20020;-66
2022/08/22 14:51:49;;;;;;;5.63;1.75;;;;;;;;;;5092394;28;20024;-66
2022/08/22 14:54:16;;;;;;;6.28;1.65;;;;;;;;;;5092005;28;20110;-66
2022/08/22 14:56:43;;;;;;;7.97;1.88;;;;;;;;;;5093417;28;20063;-66
2022/08/22 14:59:12;;;;;;;4.82;1.52;;;;;;;;;;5092918;28;20030;-66
2022/08/22 15:01:54;;;;;;;4.97;1.70;;;;;;;;;;5109635;28;20023;-66
2022/08/22 15:04:24;;;;;;;6.35;1.77;;;;;;;;;;5113457;28;20059;-66
2022/08/22 15:06:54;;;;;;;7.03;1.80;;;;;;;;;;5108147;28;20065;-66
2022/08/22 15:09:27;;;;;;;6.20;2.10;;;;;;;;;;5091855;28;20363;-66
2022/08/22 15:11:52;;;;;;;7.70;1.77;;;;;;;;;;5082498;28;20039;-66
2022/08/22 15:14:22;;;;;;;10.15;2.13;;;;;;;;;;5080145;28;20464;-66